Aérodrome :
LOGIN :

S'inscrire | Disclaimer

   EN    FR    IT 

 










Légende :    VFR   VFR Marginal   IFR   IFR Intensif   IFR Très Intensif
Visi : 
Plafond : 
>= 8 km
>= 3000ft
5 à 8 km
1000 à 3000 ft
1500m à 5 km
500 à 1000 ft
800 à 1500m
200 à 500 ft
< 800m
< 200 ft
Symboles :   Orages  Brouillard  Fortes neiges  Fortes précipitations  Vent > 20 kt
SIGMETs :   Divers  Orages  Givrage  Turbulence  Onde Orograph.  Cendres Volcan.






- Altitude de l'aérodrome : 194 ft


EBCV - Chièvres

DERNIER METAR :
  • 171655Z AUTO 35006KT 9999 FEW150/// SCT160/// 05/03 Q1010 BLU

METARs EXPIRÉS :
  • 171625Z AUTO 35006KT 9999 BKN180/// 05/03 Q1010 BLU
  • 171555Z AUTO 36006KT 9999 FEW190/// 06/03 Q1010 BLU
  • 171525Z AUTO 01007KT 9999 BKN170/// 06/03 Q1010 BLU
  • 171455Z AUTO 02006KT 9999 SCT170/// BKN190/// 07/03 Q1010 BLU
  • 171425Z AUTO 02007KT 9999 NCD 07/03 Q1010 BLU

TAF TAF EBCV
Valide du 17 à 13h jusqu'au 17 à 22h UTC


171141Z 1713/1722 02006KT 9999 SCT200
BECMG 1716/1718 02010KT BKN140 OVC200
TEMPO 1720/1722 35008KT SCT025 BKN120 OVC180 BY EBWM



MET'MAP, la Météo Aéronautique d'un coup d'oeil ! - Copyright ORBIFLY Décembre 2007 - Disclaimer

ORBIFLY MET'MAP TEAM :

Programmation & Développement : Alexandra Zaïnal
Conception & Développement : Baudouin d'Aumeries
Co-Programmation & Développement : Marc-Olivier Méhu
Soutien technique & logistique : Manuel Goepfert

Contact : metmap@orbifly.com




SOURCES & CREDITS :

   NOAA